createdAt,value
2018-12-17T00:00:20.342Z,12.43
2018-12-17T00:02:49.394Z,12.23
2018-12-17T00:05:18.480Z,11.77
2018-12-17T00:07:47.239Z,11.97
2018-12-17T00:10:16.268Z,11.63
2018-12-17T00:12:45.269Z,12.03
2018-12-17T00:15:14.392Z,12.67
2018-12-17T00:17:43.324Z,12.53
2018-12-17T00:20:12.443Z,13.10
2018-12-17T00:22:41.240Z,12.80
2018-12-17T00:25:10.254Z,13.27
2018-12-17T00:27:39.141Z,12.80
2018-12-17T00:30:09.845Z,13.70
2018-12-17T00:32:38.533Z,13.57
2018-12-17T00:35:07.520Z,13.90
2018-12-17T00:37:36.594Z,12.90
2018-12-17T00:40:07.144Z,13.93
2018-12-17T00:42:36.120Z,12.83
2018-12-17T00:45:05.614Z,13.80
2018-12-17T00:47:34.404Z,13.37
2018-12-17T00:50:03.178Z,12.80
2018-12-17T00:52:32.252Z,11.73
2018-12-17T00:55:01.294Z,12.37
2018-12-17T00:57:30.411Z,12.00
2018-12-17T00:59:59.044Z,12.43
2018-12-17T01:02:28.000Z,12.33
2018-12-17T01:04:57.001Z,12.57
2018-12-17T01:07:30.983Z,11.70
2018-12-17T01:10:00.069Z,12.30
2018-12-17T01:12:28.753Z,12.93
2018-12-17T01:14:57.659Z,12.57
2018-12-17T01:17:26.532Z,12.23
2018-12-17T01:19:55.366Z,12.50
2018-12-17T01:22:24.503Z,12.17
2018-12-17T01:24:53.556Z,11.97
2018-12-17T01:27:22.785Z,11.47
2018-12-17T01:29:51.805Z,11.37
2018-12-17T01:32:20.895Z,11.60
2018-12-17T01:34:49.759Z,11.20
2018-12-17T01:37:18.867Z,12.33
2018-12-17T01:39:47.749Z,11.70
2018-12-17T01:42:16.647Z,12.47
2018-12-17T01:44:45.756Z,13.17
2018-12-17T01:47:14.671Z,10.47
2018-12-17T01:49:43.754Z,13.30
2018-12-17T01:52:12.787Z,13.23
2018-12-17T01:54:41.723Z,13.20
2018-12-17T01:57:10.596Z,14.70
2018-12-17T01:59:39.444Z,14.27
2018-12-17T02:02:08.199Z,14.40
2018-12-17T02:04:37.244Z,14.07
2018-12-17T02:07:06.348Z,12.93
2018-12-17T02:09:35.471Z,14.17
2018-12-17T02:12:04.616Z,13.30
2018-12-17T02:14:33.666Z,13.53
2018-12-17T02:17:02.541Z,13.93
2018-12-17T02:19:31.543Z,14.63
2018-12-17T02:22:00.618Z,13.00
2018-12-17T02:24:29.628Z,13.40
2018-12-17T02:26:58.616Z,14.30
2018-12-17T02:29:27.620Z,14.03
2018-12-17T02:31:56.430Z,14.17
2018-12-17T02:34:25.261Z,14.07
2018-12-17T02:36:54.203Z,13.97
2018-12-17T02:39:23.221Z,12.50
2018-12-17T02:41:52.371Z,13.23
2018-12-17T02:44:21.476Z,15.03
2018-12-17T02:46:50.459Z,13.40
2018-12-17T02:49:19.580Z,14.57
2018-12-17T02:51:48.677Z,14.27
2018-12-17T02:54:17.332Z,14.10
2018-12-17T02:56:46.251Z,13.63
2018-12-17T02:59:15.317Z,13.67
2018-12-17T03:01:44.106Z,13.67
2018-12-17T03:04:13.104Z,13.27
2018-12-17T03:06:42.201Z,13.27
2018-12-17T03:09:10.965Z,13.47
2018-12-17T03:11:39.979Z,13.70
2018-12-17T03:14:09.059Z,13.93
2018-12-17T03:16:38.203Z,14.13
2018-12-17T03:19:07.151Z,12.80
2018-12-17T03:21:35.966Z,14.00
2018-12-17T03:24:05.402Z,13.37
2018-12-17T03:26:34.279Z,12.80
2018-12-17T03:29:03.233Z,12.87
2018-12-17T03:31:32.416Z,12.57
2018-12-17T03:34:01.397Z,12.63
2018-12-17T03:36:30.123Z,12.80
2018-12-17T03:38:59.239Z,12.93
2018-12-17T03:41:28.116Z,12.83
2018-12-17T03:43:56.867Z,12.73
2018-12-17T03:46:25.572Z,12.90
2018-12-17T03:48:54.649Z,13.77
2018-12-17T03:51:23.620Z,15.10
2018-12-17T03:53:52.739Z,14.43
2018-12-17T03:56:21.529Z,13.90
2018-12-17T03:58:50.588Z,14.67
2018-12-17T04:01:19.508Z,14.00
2018-12-17T04:03:48.511Z,13.83
2018-12-17T04:06:17.451Z,13.87
2018-12-17T04:08:46.122Z,13.50
2018-12-17T04:11:14.903Z,13.97
2018-12-17T04:13:43.902Z,13.03
2018-12-17T04:16:12.607Z,13.23
2018-12-17T04:18:41.534Z,13.30
2018-12-17T04:21:10.571Z,13.03
2018-12-17T04:23:39.529Z,13.23
2018-12-17T04:26:08.510Z,13.87
2018-12-17T04:28:37.433Z,13.50
2018-12-17T04:31:06.593Z,12.93
2018-12-17T04:33:35.493Z,12.30
2018-12-17T04:36:04.701Z,12.37
2018-12-17T04:38:33.609Z,13.30
2018-12-17T04:41:02.738Z,13.13
2018-12-17T04:43:31.635Z,13.83
2018-12-17T04:46:00.684Z,10.57
2018-12-17T04:48:29.658Z,10.93
2018-12-17T04:50:58.777Z,12.30
2018-12-17T04:53:27.753Z,11.93
2018-12-17T04:55:56.934Z,12.90
2018-12-17T04:58:26.022Z,13.53
2018-12-17T05:00:55.125Z,11.27
2018-12-17T05:03:24.032Z,11.80
2018-12-17T05:05:53.247Z,10.80
2018-12-17T05:08:22.196Z,10.90
2018-12-17T05:10:50.884Z,11.13
2018-12-17T05:13:19.617Z,11.53
2018-12-17T05:15:48.705Z,12.10
2018-12-17T05:18:17.657Z,11.70
2018-12-17T05:20:46.850Z,12.30
2018-12-17T05:23:15.722Z,12.37
2018-12-17T05:25:44.836Z,13.20
2018-12-17T05:28:14.039Z,13.70
2018-12-17T05:30:42.982Z,13.77
2018-12-17T05:33:12.252Z,13.40
2018-12-17T05:35:41.253Z,13.40
2018-12-17T05:38:10.282Z,14.73
2018-12-17T05:40:40.962Z,15.40
2018-12-17T05:43:09.912Z,14.93
2018-12-17T05:45:38.917Z,14.53
2018-12-17T05:48:07.818Z,14.23
2018-12-17T05:50:37.316Z,15.30
2018-12-17T05:53:06.169Z,15.93
2018-12-17T05:55:34.892Z,14.80
2018-12-17T05:58:03.926Z,17.13
2018-12-17T06:00:33.266Z,19.70
2018-12-17T06:03:02.178Z,16.17
2018-12-17T06:05:30.924Z,15.40
2018-12-17T06:08:00.018Z,15.37
2018-12-17T06:10:28.808Z,13.80
2018-12-17T06:12:57.787Z,16.90
2018-12-17T06:15:26.732Z,12.37
2018-12-17T06:17:55.516Z,13.47
2018-12-17T06:20:24.604Z,14.20
2018-12-17T06:22:53.648Z,14.17
2018-12-17T06:25:22.513Z,13.00
2018-12-17T06:27:51.320Z,11.53
2018-12-17T06:30:20.476Z,12.27
2018-12-17T06:32:49.532Z,12.30
2018-12-17T06:35:18.604Z,12.27
2018-12-17T06:37:47.359Z,21.60
2018-12-17T06:40:16.596Z,246.13
2018-12-17T06:42:45.439Z,100.43
2018-12-17T06:45:14.332Z,47.63
2018-12-17T06:47:43.320Z,21.07
2018-12-17T06:50:12.313Z,16.27
2018-12-17T06:52:41.341Z,17.80
2018-12-17T06:55:10.460Z,22.83
2018-12-17T06:57:39.615Z,13.60
2018-12-17T07:00:09.102Z,13.17
2018-12-17T07:02:37.991Z,12.97
2018-12-17T07:05:07.251Z,13.77
2018-12-17T07:07:36.243Z,15.50
2018-12-17T07:10:05.711Z,14.03
2018-12-17T07:12:34.726Z,16.63
2018-12-17T07:15:03.837Z,14.83
2018-12-17T07:17:32.968Z,14.43
2018-12-17T07:20:02.106Z,86.43
2018-12-17T07:22:30.905Z,119.20
2018-12-17T07:24:59.780Z,98.07
2018-12-17T07:27:29.539Z,19.13
2018-12-17T07:29:58.538Z,20.40
2018-12-17T07:32:27.586Z,18.13
2018-12-17T07:34:56.678Z,15.00
2018-12-17T07:37:25.402Z,14.10
2018-12-17T07:39:54.242Z,15.80
2018-12-17T07:42:22.976Z,15.00
2018-12-17T07:44:51.948Z,14.60
2018-12-17T07:47:20.910Z,11.57
2018-12-17T07:49:49.838Z,13.90
2018-12-17T07:52:18.807Z,12.07
2018-12-17T07:54:47.850Z,12.67
2018-12-17T07:57:17.083Z,20.23
2018-12-17T07:59:46.240Z,31.90
2018-12-17T08:02:24.664Z,13.70
2018-12-17T08:04:53.801Z,15.07
2018-12-17T08:07:22.597Z,13.10
2018-12-17T08:09:51.432Z,14.43
2018-12-17T08:12:20.381Z,15.23
2018-12-17T08:14:49.282Z,14.57
2018-12-17T08:17:18.581Z,17.23
2018-12-17T08:19:47.708Z,15.93
2018-12-17T08:22:16.628Z,16.30
2018-12-17T08:24:45.500Z,15.73
2018-12-17T08:27:14.461Z,15.43
2018-12-17T08:29:43.504Z,21.13
2018-12-17T08:32:12.277Z,20.63
2018-12-17T08:34:40.954Z,23.20
2018-12-17T08:37:10.075Z,17.50
2018-12-17T08:39:38.973Z,19.97
2018-12-17T08:42:07.991Z,20.40
2018-12-17T08:44:37.015Z,18.67
2018-12-17T08:47:05.808Z,14.73
2018-12-17T08:49:34.751Z,15.83
2018-12-17T08:52:03.577Z,18.00
2018-12-17T08:54:32.580Z,16.17
2018-12-17T08:57:01.399Z,16.67
2018-12-17T08:59:30.220Z,17.07
2018-12-17T09:01:58.976Z,20.47
2018-12-17T09:04:27.811Z,19.00
2018-12-17T09:06:56.840Z,21.30
2018-12-17T09:09:25.578Z,23.97
2018-12-17T09:11:54.256Z,20.20
2018-12-17T09:14:23.328Z,18.83
2018-12-17T09:16:52.309Z,17.47
2018-12-17T09:19:21.012Z,15.60
2018-12-17T09:21:49.783Z,16.50
2018-12-17T09:24:18.852Z,23.27
2018-12-17T09:26:47.696Z,32.13
2018-12-17T09:29:16.772Z,28.10
2018-12-17T09:31:45.518Z,21.77
2018-12-17T09:34:14.424Z,15.53
2018-12-17T09:36:43.543Z,15.20
2018-12-17T09:39:12.298Z,15.20
2018-12-17T09:41:41.295Z,15.47
2018-12-17T09:44:10.275Z,23.27
2018-12-17T09:46:39.293Z,17.07
2018-12-17T09:49:07.992Z,19.20
2018-12-17T09:51:36.856Z,18.03
2018-12-17T09:54:05.682Z,16.50
2018-12-17T09:56:34.499Z,17.17
2018-12-17T09:59:03.213Z,15.77
2018-12-17T10:01:32.111Z,15.63
2018-12-17T10:04:01.116Z,16.87
2018-12-17T10:06:30.177Z,16.80
2018-12-17T10:08:59.074Z,18.27
2018-12-17T10:11:28.162Z,19.17
2018-12-17T10:13:57.054Z,16.87
2018-12-17T10:16:25.799Z,17.03
2018-12-17T10:18:54.562Z,16.87
2018-12-17T10:21:23.273Z,17.10
2018-12-17T10:23:52.406Z,16.90
2018-12-17T10:26:21.237Z,17.30
2018-12-17T10:28:50.089Z,18.30
2018-12-17T10:31:18.854Z,18.50
2018-12-17T10:33:47.583Z,19.70
2018-12-17T10:36:16.444Z,22.10
2018-12-17T10:38:45.492Z,22.27
2018-12-17T10:41:14.460Z,23.37
2018-12-17T10:43:43.089Z,23.50
2018-12-17T10:46:11.799Z,21.13
2018-12-17T10:48:40.587Z,28.17
2018-12-17T10:51:09.286Z,22.47
2018-12-17T10:53:38.040Z,30.03
2018-12-17T10:56:07.152Z,64.43
2018-12-17T10:58:36.041Z,36.57
2018-12-17T11:01:10.359Z,35.77
2018-12-17T11:03:43.298Z,28.23
2018-12-17T11:06:16.995Z,21.73
2018-12-17T11:08:45.689Z,21.47
2018-12-17T11:11:14.422Z,20.53
2018-12-17T11:13:43.117Z,21.67
2018-12-17T11:16:11.871Z,20.27
2018-12-17T11:18:40.679Z,21.50
2018-12-17T11:21:09.398Z,27.70
2018-12-17T11:23:38.118Z,22.63
2018-12-17T11:26:06.847Z,22.43
2018-12-17T11:28:35.462Z,18.67
2018-12-17T11:31:04.275Z,20.37
2018-12-17T11:33:33.042Z,18.60
2018-12-17T11:36:01.693Z,21.20
2018-12-17T11:38:30.652Z,17.10
2018-12-17T11:40:59.646Z,19.77
2018-12-17T11:43:28.828Z,22.27
2018-12-17T11:45:57.886Z,20.50
2018-12-17T11:48:26.892Z,21.03
2018-12-17T11:50:55.875Z,22.20
2018-12-17T11:56:04.836Z,19.90
2018-12-17T11:58:33.476Z,21.27
2018-12-17T12:01:07.144Z,32.47
2018-12-17T12:03:38.852Z,29.80
2018-12-17T12:06:13.641Z,25.30
2018-12-17T12:08:38.419Z,20.40
2018-12-17T12:11:07.168Z,35.97
2018-12-17T12:13:35.917Z,21.60
2018-12-17T12:16:04.623Z,21.33
2018-12-17T12:18:33.329Z,19.90
2018-12-17T12:21:02.173Z,51.40
2018-12-17T12:23:30.871Z,37.13
2018-12-17T12:25:59.615Z,33.63
2018-12-17T12:28:28.309Z,31.70
2018-12-17T12:31:00.413Z,21.67
2018-12-17T12:33:27.831Z,21.67
2018-12-17T12:35:56.499Z,23.73
2018-12-17T12:38:25.269Z,28.97
2018-12-17T12:40:54.123Z,107.33
2018-12-17T12:43:23.213Z,55.00
2018-12-17T12:45:52.000Z,24.73
2018-12-17T12:48:20.733Z,42.63
2018-12-17T12:50:49.426Z,110.57
2018-12-17T12:53:18.281Z,41.27
2018-12-17T12:55:46.979Z,36.33
2018-12-17T12:58:15.642Z,25.03
2018-12-17T13:00:44.283Z,22.43
2018-12-17T13:03:13.353Z,22.23
2018-12-17T13:05:42.146Z,22.20
2018-12-17T13:08:11.234Z,22.20
2018-12-17T13:10:39.940Z,20.63
2018-12-17T13:13:08.908Z,22.60
2018-12-17T13:15:37.811Z,22.97
2018-12-17T13:18:06.773Z,27.73
2018-12-17T13:20:35.468Z,22.77
2018-12-17T13:23:05.368Z,22.50
2018-12-17T13:25:38.878Z,29.80
2018-12-17T13:28:07.883Z,21.53
2018-12-17T13:30:37.090Z,22.10
2018-12-17T13:33:06.038Z,23.33
2018-12-17T13:35:35.070Z,33.73
2018-12-17T13:38:04.053Z,30.37
2018-12-17T13:40:33.002Z,35.53
2018-12-17T13:43:01.892Z,35.27
2018-12-17T13:45:30.817Z,49.20
2018-12-17T13:47:59.962Z,107.73
2018-12-17T13:50:38.958Z,91.63
2018-12-17T13:53:13.163Z,180.50
2018-12-17T13:55:42.257Z,199.73
2018-12-17T13:58:12.056Z,266.73
2018-12-17T14:00:41.156Z,235.20
2018-12-17T14:03:10.180Z,85.93
2018-12-17T14:05:39.257Z,47.10
2018-12-17T14:08:08.307Z,43.10
2018-12-17T14:10:42.575Z,32.67
2018-12-17T14:13:11.345Z,44.97
2018-12-17T14:15:45.675Z,38.60
2018-12-17T14:18:19.760Z,47.90
2018-12-17T14:20:53.904Z,95.13
2018-12-17T14:23:22.836Z,61.93
2018-12-17T14:25:51.769Z,35.40
2018-12-17T14:28:20.928Z,34.23
2018-12-17T14:30:49.871Z,27.73
2018-12-17T14:33:18.864Z,25.37
2018-12-17T14:35:53.101Z,24.00
2018-12-17T14:38:22.012Z,21.23
2018-12-17T14:40:50.973Z,22.20
2018-12-17T14:43:20.074Z,34.40
2018-12-17T14:45:48.800Z,28.17
2018-12-17T14:48:17.945Z,46.30
2018-12-17T14:50:46.623Z,46.77
2018-12-17T14:53:15.550Z,42.13
2018-12-17T14:55:44.832Z,53.33
2018-12-17T14:58:13.663Z,75.17
2018-12-17T15:00:43.052Z,67.70
2018-12-17T15:03:12.777Z,50.40
2018-12-17T15:05:41.905Z,48.03
2018-12-17T15:08:11.092Z,30.47
2018-12-17T15:10:39.935Z,43.60
2018-12-17T15:13:08.723Z,41.80
2018-12-17T15:15:37.952Z,40.30
2018-12-17T15:18:07.059Z,40.70
2018-12-17T15:20:35.860Z,40.17
2018-12-17T15:23:05.044Z,40.10
2018-12-17T15:25:34.148Z,38.50
2018-12-17T15:28:03.237Z,35.47
2018-12-17T15:30:32.292Z,26.93
2018-12-17T15:33:01.648Z,25.70
2018-12-17T15:35:30.788Z,26.50
2018-12-17T15:37:59.705Z,79.20
2018-12-17T15:40:28.983Z,74.37
2018-12-17T15:42:57.884Z,72.37
2018-12-17T15:45:26.855Z,55.90
2018-12-17T15:47:55.539Z,46.70
2018-12-17T15:50:24.527Z,36.47
2018-12-17T15:52:53.640Z,41.80
2018-12-17T15:55:22.576Z,36.37
2018-12-17T15:57:51.398Z,33.53
2018-12-17T16:00:20.295Z,34.60
2018-12-17T16:02:49.373Z,33.50
2018-12-17T16:05:18.549Z,36.30
2018-12-17T16:07:47.559Z,36.60
2018-12-17T16:10:16.345Z,34.23
2018-12-17T16:12:45.036Z,37.93
2018-12-17T16:15:13.768Z,39.90
2018-12-17T16:17:42.643Z,41.47
2018-12-17T16:20:11.757Z,42.63
2018-12-17T16:22:40.608Z,36.80
2018-12-17T16:25:09.761Z,46.40
2018-12-17T16:27:38.799Z,46.77
2018-12-17T16:30:10.030Z,57.13
2018-12-17T16:32:38.883Z,67.33
2018-12-17T16:35:08.762Z,65.87
2018-12-17T16:37:37.741Z,51.00
2018-12-17T16:40:07.464Z,49.73
2018-12-17T16:42:37.088Z,47.70
2018-12-17T16:45:07.624Z,48.83
2018-12-17T16:47:36.978Z,46.17
2018-12-17T16:50:08.033Z,41.13
2018-12-17T16:52:37.132Z,40.87
2018-12-17T16:55:06.233Z,39.20
2018-12-17T16:57:34.962Z,40.40
2018-12-17T17:00:04.337Z,41.50
2018-12-17T17:02:33.536Z,42.27
2018-12-17T17:05:02.686Z,39.93
2018-12-17T17:07:31.552Z,40.67
2018-12-17T17:10:04.467Z,46.17
2018-12-17T17:12:33.543Z,54.27
2018-12-17T17:15:03.011Z,53.03
2018-12-17T17:17:31.949Z,53.43
2018-12-17T17:20:00.858Z,51.70
2018-12-17T17:22:30.195Z,55.93
2018-12-17T17:24:59.120Z,55.13
2018-12-17T17:27:28.163Z,55.53
2018-12-17T17:29:57.302Z,66.73
2018-12-17T17:32:26.448Z,53.23
2018-12-17T17:34:55.326Z,43.53
2018-12-17T17:37:24.341Z,40.83
2018-12-17T17:39:53.278Z,46.87
2018-12-17T17:42:22.316Z,49.40
2018-12-17T17:44:51.499Z,43.43
2018-12-17T17:47:20.475Z,50.67
2018-12-17T17:49:49.576Z,50.60
2018-12-17T17:52:18.721Z,51.40
2018-12-17T17:54:47.635Z,53.87
2018-12-17T17:57:16.691Z,54.43
2018-12-17T17:59:45.815Z,97.73
2018-12-17T18:02:18.824Z,90.63
2018-12-17T18:04:45.775Z,164.50
2018-12-17T18:07:14.668Z,91.57
2018-12-17T18:09:43.534Z,87.57
2018-12-17T18:12:13.205Z,66.40
2018-12-17T18:14:43.090Z,69.73
2018-12-17T18:17:12.076Z,46.67
2018-12-17T18:19:41.513Z,48.03
2018-12-17T18:22:10.616Z,40.43
2018-12-17T18:24:40.065Z,40.70
2018-12-17T18:27:09.125Z,42.80
2018-12-17T18:29:38.198Z,35.73
2018-12-17T18:32:07.313Z,45.67
2018-12-17T18:34:36.551Z,54.80
2018-12-17T18:37:05.441Z,43.13
2018-12-17T18:39:34.827Z,45.33
2018-12-17T18:42:03.792Z,49.17
2018-12-17T18:44:32.826Z,39.70
2018-12-17T18:47:01.950Z,36.10
2018-12-17T18:49:32.028Z,36.60
2018-12-17T18:52:01.725Z,33.03
2018-12-17T18:54:30.681Z,32.60
2018-12-17T18:56:59.786Z,30.83
2018-12-17T18:59:28.553Z,31.40
2018-12-17T19:01:57.501Z,35.90
2018-12-17T19:04:26.673Z,44.20
2018-12-17T19:06:55.761Z,34.50
2018-12-17T19:09:24.798Z,32.50
2018-12-17T19:11:53.839Z,33.37
2018-12-17T19:14:22.777Z,36.80
2018-12-17T19:16:51.468Z,50.70
2018-12-17T19:19:21.068Z,49.27
2018-12-17T19:21:49.781Z,51.47
2018-12-17T19:24:18.853Z,55.43
2018-12-17T19:26:47.727Z,54.63
2018-12-17T19:29:16.785Z,46.87
2018-12-17T19:31:45.701Z,40.13
2018-12-17T19:34:14.749Z,37.47
2018-12-17T19:36:43.772Z,45.60
2018-12-17T19:39:12.911Z,45.90
2018-12-17T19:41:42.377Z,47.57
2018-12-17T19:44:11.275Z,118.63
2018-12-17T19:46:40.175Z,45.33
2018-12-17T19:49:08.947Z,33.33
2018-12-17T19:51:37.577Z,30.27
2018-12-17T19:54:06.714Z,29.43
2018-12-17T19:56:35.652Z,28.80
2018-12-17T19:59:04.449Z,30.13
2018-12-17T20:01:33.334Z,28.23
2018-12-17T20:04:02.265Z,28.47
2018-12-17T20:06:31.264Z,30.17
2018-12-17T20:09:00.318Z,28.67
2018-12-17T20:11:29.302Z,34.23
2018-12-17T20:13:58.171Z,34.03
2018-12-17T20:16:27.108Z,31.77
2018-12-17T20:18:56.181Z,28.50
2018-12-17T20:21:25.316Z,28.20
2018-12-17T20:23:54.066Z,29.47
2018-12-17T20:26:23.174Z,29.03
2018-12-17T20:28:51.884Z,31.87
2018-12-17T20:31:20.804Z,33.17
2018-12-17T20:33:49.668Z,34.57
2018-12-17T20:36:18.744Z,36.13
2018-12-17T20:38:47.857Z,39.30
2018-12-17T20:41:16.596Z,36.47
2018-12-17T20:43:45.457Z,38.23
2018-12-17T20:46:14.473Z,41.57
2018-12-17T20:48:43.566Z,41.27
2018-12-17T20:51:12.620Z,39.30
2018-12-17T20:53:41.568Z,37.43
2018-12-17T20:56:10.196Z,37.37
2018-12-17T20:58:39.228Z,35.93
2018-12-17T21:01:08.323Z,40.20
2018-12-17T21:03:37.148Z,65.40
2018-12-17T21:06:06.028Z,75.37
2018-12-17T21:08:35.118Z,49.40
2018-12-17T21:11:04.545Z,40.97
2018-12-17T21:13:33.902Z,70.00
2018-12-17T21:16:02.932Z,59.57
2018-12-17T21:18:31.976Z,99.43
2018-12-17T21:21:00.843Z,106.67
2018-12-17T21:23:30.180Z,122.57
2018-12-17T21:25:59.169Z,46.00
2018-12-17T21:28:28.261Z,60.77
2018-12-17T21:30:57.223Z,70.50
2018-12-17T21:33:26.363Z,91.03
2018-12-17T21:35:55.449Z,118.60
2018-12-17T21:38:24.492Z,197.13
2018-12-17T21:40:53.531Z,64.67
2018-12-17T21:43:22.458Z,64.43
2018-12-17T21:45:51.525Z,60.27
2018-12-17T21:48:20.441Z,47.90
2018-12-17T21:50:49.493Z,35.63
2018-12-17T21:53:18.429Z,35.17
2018-12-17T21:55:47.131Z,34.83
2018-12-17T21:58:16.088Z,37.73
2018-12-17T22:00:44.898Z,37.17
2018-12-17T22:03:13.951Z,36.43
2018-12-17T22:05:43.045Z,34.07
2018-12-17T22:08:12.854Z,32.13
2018-12-17T22:10:41.907Z,32.07
2018-12-17T22:13:10.865Z,32.30
2018-12-17T22:15:39.709Z,30.73
2018-12-17T22:18:08.824Z,31.90
2018-12-17T22:20:37.881Z,31.83
2018-12-17T22:23:06.913Z,33.17
2018-12-17T22:25:35.901Z,33.03
2018-12-17T22:28:04.609Z,31.87
2018-12-17T22:30:33.693Z,31.53
2018-12-17T22:33:02.893Z,30.53
2018-12-17T22:35:31.872Z,30.80
2018-12-17T22:38:00.613Z,32.07
2018-12-17T22:40:29.650Z,31.50
2018-12-17T22:42:58.848Z,31.70
2018-12-17T22:45:29.493Z,30.57
2018-12-17T22:47:58.824Z,29.97
2018-12-17T22:50:27.872Z,32.00
2018-12-17T22:52:56.569Z,30.20
2018-12-17T22:55:25.763Z,29.33
2018-12-17T22:57:54.746Z,31.33
2018-12-17T23:00:24.148Z,30.00
2018-12-17T23:02:53.038Z,30.43
2018-12-17T23:05:22.098Z,32.27
2018-12-17T23:07:51.008Z,30.77
2018-12-17T23:10:32.815Z,30.70
2018-12-17T23:13:12.558Z,30.73
2018-12-17T23:15:52.325Z,30.40
2018-12-17T23:18:19.864Z,30.67
2018-12-17T23:20:48.759Z,30.17
2018-12-17T23:23:17.791Z,30.73
2018-12-17T23:25:47.863Z,31.57
2018-12-17T23:28:16.715Z,31.43
2018-12-17T23:30:45.848Z,30.33
2018-12-17T23:33:14.760Z,30.67
2018-12-17T23:35:43.489Z,32.67
2018-12-17T23:38:12.366Z,33.10
2018-12-17T23:40:41.418Z,37.10
2018-12-17T23:43:10.602Z,35.03
2018-12-17T23:45:39.760Z,33.83
2018-12-17T23:48:08.831Z,32.90
2018-12-17T23:50:38.157Z,34.67
2018-12-17T23:53:07.244Z,36.20
2018-12-17T23:55:36.247Z,36.00
2018-12-17T23:58:05.277Z,33.90
